sensor_id;sensor_type;location;lat;lon;timestamp;temperature;humidity
31003;DHT22;23051;-6.372;106.786;2023-07-29T00:00:03;26.60;76.30
31003;DHT22;23051;-6.372;106.786;2023-07-29T00:02:05;26.60;76.20
31003;DHT22;23051;-6.372;106.786;2023-07-29T00:04:06;26.60;76.20
31003;DHT22;23051;-6.372;106.786;2023-07-29T00:06:09;26.60;76.10
31003;DHT22;23051;-6.372;106.786;2023-07-29T00:08:10;26.70;76.10
31003;DHT22;23051;-6.372;106.786;2023-07-29T00:10:12;26.70;76.10
31003;DHT22;23051;-6.372;106.786;2023-07-29T00:12:13;26.70;76.00
31003;DHT22;23051;-6.372;106.786;2023-07-29T00:14:19;26.80;76.00
31003;DHT22;23051;-6.372;106.786;2023-07-29T00:16:22;26.70;75.90
31003;DHT22;23051;-6.372;106.786;2023-07-29T00:18:26;26.80;75.90
31003;DHT22;23051;-6.372;106.786;2023-07-29T00:20:28;26.80;75.80
31003;DHT22;23051;-6.372;106.786;2023-07-29T00:22:32;26.80;75.70
31003;DHT22;23051;-6.372;106.786;2023-07-29T00:24:33;26.90;76.50
31003;DHT22;23051;-6.372;106.786;2023-07-29T00:26:37;26.90;75.70
31003;DHT22;23051;-6.372;106.786;2023-07-29T00:28:38;26.90;75.70
31003;DHT22;23051;-6.372;106.786;2023-07-29T00:30:39;26.90;75.60
31003;DHT22;23051;-6.372;106.786;2023-07-29T00:32:41;26.90;75.50
31003;DHT22;23051;-6.372;106.786;2023-07-29T00:34:42;26.90;75.50
31003;DHT22;23051;-6.372;106.786;2023-07-29T00:36:43;26.90;75.40
31003;DHT22;23051;-6.372;106.786;2023-07-29T00:38:48;27.00;75.40
31003;DHT22;23051;-6.372;106.786;2023-07-29T00:40:51;26.90;75.30
31003;DHT22;23051;-6.372;106.786;2023-07-29T00:42:55;27.00;75.30
31003;DHT22;23051;-6.372;106.786;2023-07-29T00:44:56;27.00;75.30
31003;DHT22;23051;-6.372;106.786;2023-07-29T00:47:00;27.00;75.20
31003;DHT22;23051;-6.372;106.786;2023-07-29T00:49:01;27.10;75.30
31003;DHT22;23051;-6.372;106.786;2023-07-29T00:51:05;27.10;75.10
31003;DHT22;23051;-6.372;106.786;2023-07-29T00:53:06;27.10;75.10
31003;DHT22;23051;-6.372;106.786;2023-07-29T00:55:08;27.20;75.00
31003;DHT22;23051;-6.372;106.786;2023-07-29T00:57:10;27.20;74.90
31003;DHT22;23051;-6.372;106.786;2023-07-29T00:59:16;27.20;74.80
31003;DHT22;23051;-6.372;106.786;2023-07-29T01:01:20;27.30;74.80
31003;DHT22;23051;-6.372;106.786;2023-07-29T01:03:21;27.30;74.70
31003;DHT22;23051;-6.372;106.786;2023-07-29T01:05:22;27.40;74.70
31003;DHT22;23051;-6.372;106.786;2023-07-29T01:08:05;27.40;74.60
31003;DHT22;23051;-6.372;106.786;2023-07-29T01:09:51;27.50;74.50
31003;DHT22;23051;-6.372;106.786;2023-07-29T01:13:58;27.50;74.30
31003;DHT22;23051;-6.372;106.786;2023-07-29T01:16:07;27.50;74.30
31003;DHT22;23051;-6.372;106.786;2023-07-29T01:18:14;27.60;74.30
31003;DHT22;23051;-6.372;106.786;2023-07-29T01:20:19;27.60;74.20
31003;DHT22;23051;-6.372;106.786;2023-07-29T01:22:21;27.70;74.10
31003;DHT22;23051;-6.372;106.786;2023-07-29T01:24:24;27.70;73.90
31003;DHT22;23051;-6.372;106.786;2023-07-29T01:26:25;27.80;73.80
31003;DHT22;23051;-6.372;106.786;2023-07-29T01:28:29;27.90;73.70
31003;DHT22;23051;-6.372;106.786;2023-07-29T01:30:30;28.00;73.60
31003;DHT22;23051;-6.372;106.786;2023-07-29T01:34:39;28.00;73.50
31003;DHT22;23051;-6.372;106.786;2023-07-29T01:36:42;28.00;73.50
31003;DHT22;23051;-6.372;106.786;2023-07-29T01:38:43;28.00;73.40
31003;DHT22;23051;-6.372;106.786;2023-07-29T01:40:45;28.10;73.50
31003;DHT22;23051;-6.372;106.786;2023-07-29T01:42:46;28.10;73.50
31003;DHT22;23051;-6.372;106.786;2023-07-29T01:44:48;28.10;73.40
31003;DHT22;23051;-6.372;106.786;2023-07-29T01:46:51;28.20;73.40
31003;DHT22;23051;-6.372;106.786;2023-07-29T01:48:52;28.20;73.40
31003;DHT22;23051;-6.372;106.786;2023-07-29T01:50:53;28.20;73.30
31003;DHT22;23051;-6.372;106.786;2023-07-29T01:52:57;28.20;73.30
31003;DHT22;23051;-6.372;106.786;2023-07-29T01:55:00;28.20;73.20
31003;DHT22;23051;-6.372;106.786;2023-07-29T01:57:03;28.30;73.30
31003;DHT22;23051;-6.372;106.786;2023-07-29T01:59:04;28.30;73.20
31003;DHT22;23051;-6.372;106.786;2023-07-29T02:01:05;28.30;73.20
31003;DHT22;23051;-6.372;106.786;2023-07-29T02:05:12;28.40;73.20
31003;DHT22;23051;-6.372;106.786;2023-07-29T02:09:14;28.50;73.10
31003;DHT22;23051;-6.372;106.786;2023-07-29T02:11:15;28.50;73.00
31003;DHT22;23051;-6.372;106.786;2023-07-29T02:13:16;28.50;72.90
31003;DHT22;23051;-6.372;106.786;2023-07-29T02:15:17;28.50;72.90
31003;DHT22;23051;-6.372;106.786;2023-07-29T02:17:21;28.60;72.90
31003;DHT22;23051;-6.372;106.786;2023-07-29T02:19:24;28.60;72.80
31003;DHT22;23051;-6.372;106.786;2023-07-29T02:21:25;28.60;72.70
31003;DHT22;23051;-6.372;106.786;2023-07-29T02:23:29;28.70;72.70
31003;DHT22;23051;-6.372;106.786;2023-07-29T02:25:30;28.70;72.60
31003;DHT22;23051;-6.372;106.786;2023-07-29T02:27:31;28.80;72.60
31003;DHT22;23051;-6.372;106.786;2023-07-29T02:29:34;28.80;72.50
31003;DHT22;23051;-6.372;106.786;2023-07-29T02:31:38;28.80;72.40
31003;DHT22;23051;-6.372;106.786;2023-07-29T02:33:39;28.90;72.40
31003;DHT22;23051;-6.372;106.786;2023-07-29T02:35:43;28.90;72.30
31003;DHT22;23051;-6.372;106.786;2023-07-29T02:37:44;28.90;72.30
31003;DHT22;23051;-6.372;106.786;2023-07-29T02:39:47;29.00;72.20
31003;DHT22;23051;-6.372;106.786;2023-07-29T02:41:48;29.10;72.20
31003;DHT22;23051;-6.372;106.786;2023-07-29T02:43:49;29.10;72.00
31003;DHT22;23051;-6.372;106.786;2023-07-29T02:45:51;29.20;72.00
31003;DHT22;23051;-6.372;106.786;2023-07-29T02:47:52;29.20;71.80
31003;DHT22;23051;-6.372;106.786;2023-07-29T02:49:54;29.30;71.80
31003;DHT22;23051;-6.372;106.786;2023-07-29T02:51:55;29.40;71.70
31003;DHT22;23051;-6.372;106.786;2023-07-29T02:53:56;29.50;71.60
31003;DHT22;23051;-6.372;106.786;2023-07-29T02:55:57;29.50;71.40
31003;DHT22;23051;-6.372;106.786;2023-07-29T02:57:59;29.60;71.40
31003;DHT22;23051;-6.372;106.786;2023-07-29T03:00:00;29.60;71.30
31003;DHT22;23051;-6.372;106.786;2023-07-29T03:02:01;29.60;71.30
31003;DHT22;23051;-6.372;106.786;2023-07-29T03:04:04;29.70;71.40
31003;DHT22;23051;-6.372;106.786;2023-07-29T03:06:10;29.60;71.20
31003;DHT22;23051;-6.372;106.786;2023-07-29T03:08:11;29.70;71.20
31003;DHT22;23051;-6.372;106.786;2023-07-29T03:10:13;29.70;71.20
31003;DHT22;23051;-6.372;106.786;2023-07-29T03:12:15;29.80;71.20
31003;DHT22;23051;-6.372;106.786;2023-07-29T03:14:16;29.80;71.00
31003;DHT22;23051;-6.372;106.786;2023-07-29T03:16:17;29.80;71.00
31003;DHT22;23051;-6.372;106.786;2023-07-29T03:18:19;29.90;71.00
31003;DHT22;23051;-6.372;106.786;2023-07-29T03:20:22;29.90;71.00
31003;DHT22;23051;-6.372;106.786;2023-07-29T03:22:23;30.00;71.00
31003;DHT22;23051;-6.372;106.786;2023-07-29T03:24:27;30.00;70.80
31003;DHT22;23051;-6.372;106.786;2023-07-29T03:26:29;30.10;70.80
31003;DHT22;23051;-6.372;106.786;2023-07-29T03:28:31;30.20;70.80
31003;DHT22;23051;-6.372;106.786;2023-07-29T03:30:35;30.20;70.60
31003;DHT22;23051;-6.372;106.786;2023-07-29T03:32:38;30.30;70.60
31003;DHT22;23051;-6.372;106.786;2023-07-29T03:34:40;30.30;70.50
31003;DHT22;23051;-6.372;106.786;2023-07-29T03:36:43;30.30;70.50
31003;DHT22;23051;-6.372;106.786;2023-07-29T03:38:46;30.30;70.40
31003;DHT22;23051;-6.372;106.786;2023-07-29T03:40:50;30.40;70.40
31003;DHT22;23051;-6.372;106.786;2023-07-29T03:42:51;30.40;70.40
31003;DHT22;23051;-6.372;106.786;2023-07-29T03:44:54;30.40;70.40
31003;DHT22;23051;-6.372;106.786;2023-07-29T03:46:56;30.40;70.30
31003;DHT22;23051;-6.372;106.786;2023-07-29T03:48:57;30.50;70.30
31003;DHT22;23051;-6.372;106.786;2023-07-29T03:50:58;30.50;70.30
31003;DHT22;23051;-6.372;106.786;2023-07-29T03:52:59;30.50;70.20
31003;DHT22;23051;-6.372;106.786;2023-07-29T03:55:00;30.60;70.10
31003;DHT22;23051;-6.372;106.786;2023-07-29T03:57:01;30.70;70.10
31003;DHT22;23051;-6.372;106.786;2023-07-29T03:59:03;30.70;69.80
31003;DHT22;23051;-6.372;106.786;2023-07-29T04:01:04;30.80;69.80
31003;DHT22;23051;-6.372;106.786;2023-07-29T04:03:05;30.90;69.70
31003;DHT22;23051;-6.372;106.786;2023-07-29T04:05:09;31.00;69.60
31003;DHT22;23051;-6.372;106.786;2023-07-29T04:07:11;31.00;69.50
31003;DHT22;23051;-6.372;106.786;2023-07-29T04:09:14;31.10;69.50
31003;DHT22;23051;-6.372;106.786;2023-07-29T04:11:15;31.10;69.40
31003;DHT22;23051;-6.372;106.786;2023-07-29T04:13:16;31.10;69.20
31003;DHT22;23051;-6.372;106.786;2023-07-29T04:15:22;31.20;69.20
31003;DHT22;23051;-6.372;106.786;2023-07-29T04:17:23;31.30;69.10
31003;DHT22;23051;-6.372;106.786;2023-07-29T04:19:29;31.40;68.90
31003;DHT22;23051;-6.372;106.786;2023-07-29T04:21:32;31.40;68.80
31003;DHT22;23051;-6.372;106.786;2023-07-29T04:23:33;31.50;68.70
31003;DHT22;23051;-6.372;106.786;2023-07-29T04:25:38;31.60;68.80
31003;DHT22;23051;-6.372;106.786;2023-07-29T04:27:39;31.60;68.60
31003;DHT22;23051;-6.372;106.786;2023-07-29T04:29:40;31.70;68.40
31003;DHT22;23051;-6.372;106.786;2023-07-29T04:31:41;31.70;68.40
31003;DHT22;23051;-6.372;106.786;2023-07-29T04:33:43;31.70;68.40
31003;DHT22;23051;-6.372;106.786;2023-07-29T04:35:44;31.70;68.50
31003;DHT22;23051;-6.372;106.786;2023-07-29T04:37:48;31.60;68.60
31003;DHT22;23051;-6.372;106.786;2023-07-29T04:39:49;31.60;68.80
31003;DHT22;23051;-6.372;106.786;2023-07-29T04:41:53;31.60;68.80
31003;DHT22;23051;-6.372;106.786;2023-07-29T04:44:00;31.70;68.60
31003;DHT22;23051;-6.372;106.786;2023-07-29T04:46:05;31.80;68.60
31003;DHT22;23051;-6.372;106.786;2023-07-29T04:48:06;31.80;68.50
31003;DHT22;23051;-6.372;106.786;2023-07-29T04:50:08;31.80;68.50
31003;DHT22;23051;-6.372;106.786;2023-07-29T04:52:09;31.80;68.50
31003;DHT22;23051;-6.372;106.786;2023-07-29T04:54:10;31.90;68.40
31003;DHT22;23051;-6.372;106.786;2023-07-29T04:56:11;32.00;68.30
31003;DHT22;23051;-6.372;106.786;2023-07-29T04:58:12;32.00;68.20
31003;DHT22;23051;-6.372;106.786;2023-07-29T05:00:13;32.00;68.30
31003;DHT22;23051;-6.372;106.786;2023-07-29T05:02:15;32.00;68.20
31003;DHT22;23051;-6.372;106.786;2023-07-29T05:04:17;32.10;68.20
31003;DHT22;23051;-6.372;106.786;2023-07-29T05:06:18;32.20;68.00
31003;DHT22;23051;-6.372;106.786;2023-07-29T05:08:21;32.30;67.90
31003;DHT22;23051;-6.372;106.786;2023-07-29T05:10:22;32.30;67.80
31003;DHT22;23051;-6.372;106.786;2023-07-29T05:12:26;32.40;67.70
31003;DHT22;23051;-6.372;106.786;2023-07-29T05:14:30;32.50;67.70
31003;DHT22;23051;-6.372;106.786;2023-07-29T05:16:31;32.50;67.60
31003;DHT22;23051;-6.372;106.786;2023-07-29T05:18:34;32.40;67.50
31003;DHT22;23051;-6.372;106.786;2023-07-29T05:20:37;32.50;67.60
31003;DHT22;23051;-6.372;106.786;2023-07-29T05:22:38;32.60;67.50
31003;DHT22;23051;-6.372;106.786;2023-07-29T05:24:42;32.60;67.30
31003;DHT22;23051;-6.372;106.786;2023-07-29T05:26:45;32.70;67.30
31003;DHT22;23051;-6.372;106.786;2023-07-29T05:28:48;32.70;68.00
31003;DHT22;23051;-6.372;106.786;2023-07-29T05:30:52;32.70;67.10
31003;DHT22;23051;-6.372;106.786;2023-07-29T05:32:53;32.80;67.10
31003;DHT22;23051;-6.372;106.786;2023-07-29T05:34:54;32.80;67.00
31003;DHT22;23051;-6.372;106.786;2023-07-29T05:36:55;32.90;66.90
31003;DHT22;23051;-6.372;106.786;2023-07-29T05:38:58;33.00;66.90
31003;DHT22;23051;-6.372;106.786;2023-07-29T05:41:02;33.10;66.70
31003;DHT22;23051;-6.372;106.786;2023-07-29T05:43:03;33.20;66.50
31003;DHT22;23051;-6.372;106.786;2023-07-29T05:45:04;33.30;66.40
31003;DHT22;23051;-6.372;106.786;2023-07-29T05:47:06;33.40;66.30
31003;DHT22;23051;-6.372;106.786;2023-07-29T05:49:09;33.40;66.30
31003;DHT22;23051;-6.372;106.786;2023-07-29T05:51:11;33.40;66.20
31003;DHT22;23051;-6.372;106.786;2023-07-29T05:53:12;33.40;66.20
31003;DHT22;23051;-6.372;106.786;2023-07-29T05:55:15;33.40;66.40
31003;DHT22;23051;-6.372;106.786;2023-07-29T05:57:16;33.20;66.50
31003;DHT22;23051;-6.372;106.786;2023-07-29T05:59:20;33.20;66.80
31003;DHT22;23051;-6.372;106.786;2023-07-29T06:01:26;33.20;66.90
31003;DHT22;23051;-6.372;106.786;2023-07-29T06:03:29;33.10;67.00
31003;DHT22;23051;-6.372;106.786;2023-07-29T06:05:32;33.00;67.10
31003;DHT22;23051;-6.372;106.786;2023-07-29T06:07:34;33.00;67.30
31003;DHT22;23051;-6.372;106.786;2023-07-29T06:09:35;32.90;67.30
31003;DHT22;23051;-6.372;106.786;2023-07-29T06:11:36;33.00;67.40
31003;DHT22;23051;-6.372;106.786;2023-07-29T06:13:39;32.90;67.30
31003;DHT22;23051;-6.372;106.786;2023-07-29T06:15:43;33.00;67.30
31003;DHT22;23051;-6.372;106.786;2023-07-29T06:17:44;33.10;67.20
31003;DHT22;23051;-6.372;106.786;2023-07-29T06:19:45;33.10;67.10
31003;DHT22;23051;-6.372;106.786;2023-07-29T06:21:48;33.00;67.10
31003;DHT22;23051;-6.372;106.786;2023-07-29T06:23:49;33.00;67.30
31003;DHT22;23051;-6.372;106.786;2023-07-29T06:25:50;32.90;67.40
31003;DHT22;23051;-6.372;106.786;2023-07-29T06:27:54;32.90;67.50
31003;DHT22;23051;-6.372;106.786;2023-07-29T06:29:55;32.80;67.70
31003;DHT22;23051;-6.372;106.786;2023-07-29T06:31:58;32.80;67.80
31003;DHT22;23051;-6.372;106.786;2023-07-29T06:33:59;32.70;68.70
31003;DHT22;23051;-6.372;106.786;2023-07-29T06:36:00;32.70;68.00
31003;DHT22;23051;-6.372;106.786;2023-07-29T06:38:04;32.70;68.00
31003;DHT22;23051;-6.372;106.786;2023-07-29T06:40:08;32.70;68.30
31003;DHT22;23051;-6.372;106.786;2023-07-29T06:42:09;32.70;68.10
31003;DHT22;23051;-6.372;106.786;2023-07-29T06:44:10;32.80;67.90
31003;DHT22;23051;-6.372;106.786;2023-07-29T06:46:11;32.90;67.80
31003;DHT22;23051;-6.372;106.786;2023-07-29T06:48:12;32.90;67.60
31003;DHT22;23051;-6.372;106.786;2023-07-29T06:50:16;33.10;67.50
31003;DHT22;23051;-6.372;106.786;2023-07-29T06:52:17;33.10;67.30
31003;DHT22;23051;-6.372;106.786;2023-07-29T06:54:24;33.10;67.20
31003;DHT22;23051;-6.372;106.786;2023-07-29T06:56:25;33.20;67.20
31003;DHT22;23051;-6.372;106.786;2023-07-29T06:58:27;33.20;67.10
31003;DHT22;23051;-6.372;106.786;2023-07-29T07:00:28;33.30;66.90
31003;DHT22;23051;-6.372;106.786;2023-07-29T07:02:32;33.40;66.80
31003;DHT22;23051;-6.372;106.786;2023-07-29T07:04:35;33.40;66.70
31003;DHT22;23051;-6.372;106.786;2023-07-29T07:06:36;33.50;66.70
31003;DHT22;23051;-6.372;106.786;2023-07-29T07:08:39;33.50;66.60
31003;DHT22;23051;-6.372;106.786;2023-07-29T07:10:42;33.60;66.60
31003;DHT22;23051;-6.372;106.786;2023-07-29T07:12:45;33.60;66.50
31003;DHT22;23051;-6.372;106.786;2023-07-29T07:14:49;33.70;66.60
31003;DHT22;23051;-6.372;106.786;2023-07-29T07:16:49;33.70;66.40
31003;DHT22;23051;-6.372;106.786;2023-07-29T07:18:55;33.80;66.30
31003;DHT22;23051;-6.372;106.786;2023-07-29T07:20:58;33.90;66.20
31003;DHT22;23051;-6.372;106.786;2023-07-29T07:23:02;34.10;65.90
31003;DHT22;23051;-6.372;106.786;2023-07-29T07:25:03;34.20;65.70
31003;DHT22;23051;-6.372;106.786;2023-07-29T07:27:07;34.20;65.50
31003;DHT22;23051;-6.372;106.786;2023-07-29T07:29:11;34.20;65.40
31003;DHT22;23051;-6.372;106.786;2023-07-29T07:31:12;34.20;65.50
31003;DHT22;23051;-6.372;106.786;2023-07-29T07:33:13;34.20;65.50
31003;DHT22;23051;-6.372;106.786;2023-07-29T07:35:16;34.30;65.50
31003;DHT22;23051;-6.372;106.786;2023-07-29T07:37:17;34.40;65.30
31003;DHT22;23051;-6.372;106.786;2023-07-29T07:39:21;34.40;65.10
31003;DHT22;23051;-6.372;106.786;2023-07-29T07:41:22;34.50;65.00
31003;DHT22;23051;-6.372;106.786;2023-07-29T07:43:24;34.50;65.00
31003;DHT22;23051;-6.372;106.786;2023-07-29T07:45:25;34.50;65.00
31003;DHT22;23051;-6.372;106.786;2023-07-29T07:47:26;34.60;65.00
31003;DHT22;23051;-6.372;106.786;2023-07-29T07:49:28;34.50;65.00
31003;DHT22;23051;-6.372;106.786;2023-07-29T07:51:31;34.50;65.00
31003;DHT22;23051;-6.372;106.786;2023-07-29T07:53:35;34.50;65.20
31003;DHT22;23051;-6.372;106.786;2023-07-29T07:55:38;34.50;65.10
31003;DHT22;23051;-6.372;106.786;2023-07-29T07:57:39;34.50;65.00
31003;DHT22;23051;-6.372;106.786;2023-07-29T07:59:40;34.50;65.10
31003;DHT22;23051;-6.372;106.786;2023-07-29T08:01:41;34.40;65.20
31003;DHT22;23051;-6.372;106.786;2023-07-29T08:03:42;34.40;65.40
31003;DHT22;23051;-6.372;106.786;2023-07-29T08:05:43;34.40;65.60
31003;DHT22;23051;-6.372;106.786;2023-07-29T08:07:45;34.30;65.70
31003;DHT22;23051;-6.372;106.786;2023-07-29T08:09:46;34.30;65.80
31003;DHT22;23051;-6.372;106.786;2023-07-29T08:11:47;34.30;65.80
31003;DHT22;23051;-6.372;106.786;2023-07-29T08:13:50;34.40;65.70
31003;DHT22;23051;-6.372;106.786;2023-07-29T08:15:53;34.40;65.40
31003;DHT22;23051;-6.372;106.786;2023-07-29T08:17:55;34.50;65.30
31003;DHT22;23051;-6.372;106.786;2023-07-29T08:19:56;34.60;65.20
31003;DHT22;23051;-6.372;106.786;2023-07-29T08:21:57;34.70;65.10
31003;DHT22;23051;-6.372;106.786;2023-07-29T08:24:00;34.70;65.00
31003;DHT22;23051;-6.372;106.786;2023-07-29T08:26:03;34.70;65.00
31003;DHT22;23051;-6.372;106.786;2023-07-29T08:28:08;34.70;64.80
31003;DHT22;23051;-6.372;106.786;2023-07-29T08:30:11;34.70;64.70
31003;DHT22;23051;-6.372;106.786;2023-07-29T08:32:12;34.70;64.80
31003;DHT22;23051;-6.372;106.786;2023-07-29T08:34:13;34.70;64.80
31003;DHT22;23051;-6.372;106.786;2023-07-29T08:36:15;34.70;64.90
31003;DHT22;23051;-6.372;106.786;2023-07-29T08:38:16;34.60;64.90
31003;DHT22;23051;-6.372;106.786;2023-07-29T08:40:22;34.60;65.00
31003;DHT22;23051;-6.372;106.786;2023-07-29T08:42:23;34.60;65.10
31003;DHT22;23051;-6.372;106.786;2023-07-29T08:44:30;34.60;65.20
31003;DHT22;23051;-6.372;106.786;2023-07-29T08:46:33;34.50;65.30
31003;DHT22;23051;-6.372;106.786;2023-07-29T08:48:41;34.50;65.40
31003;DHT22;23051;-6.372;106.786;2023-07-29T08:50:43;34.40;65.50
31003;DHT22;23051;-6.372;106.786;2023-07-29T08:52:45;34.40;65.60
31003;DHT22;23051;-6.372;106.786;2023-07-29T08:54:49;34.40;65.80
31003;DHT22;23051;-6.372;106.786;2023-07-29T08:56:50;34.30;65.80
31003;DHT22;23051;-6.372;106.786;2023-07-29T08:58:52;34.40;65.90
31003;DHT22;23051;-6.372;106.786;2023-07-29T09:00:55;34.30;66.00
31003;DHT22;23051;-6.372;106.786;2023-07-29T09:02:59;34.20;66.00
31003;DHT22;23051;-6.372;106.786;2023-07-29T09:05:05;34.20;66.20
31003;DHT22;23051;-6.372;106.786;2023-07-29T09:07:08;34.20;66.30
31003;DHT22;23051;-6.372;106.786;2023-07-29T09:09:10;34.10;66.40
31003;DHT22;23051;-6.372;106.786;2023-07-29T09:11:13;34.10;66.40
31003;DHT22;23051;-6.372;106.786;2023-07-29T09:13:14;34.00;66.60
31003;DHT22;23051;-6.372;106.786;2023-07-29T09:17:19;34.00;66.80
31003;DHT22;23051;-6.372;106.786;2023-07-29T09:19:25;33.90;66.80
31003;DHT22;23051;-6.372;106.786;2023-07-29T09:23:32;33.90;67.00
31003;DHT22;23051;-6.372;106.786;2023-07-29T09:25:39;33.80;67.00
31003;DHT22;23051;-6.372;106.786;2023-07-29T09:27:45;33.80;67.20
31003;DHT22;23051;-6.372;106.786;2023-07-29T09:29:46;33.70;67.30
31003;DHT22;23051;-6.372;106.786;2023-07-29T09:31:52;33.60;67.40
31003;DHT22;23051;-6.372;106.786;2023-07-29T09:33:58;33.50;67.50
31003;DHT22;23051;-6.372;106.786;2023-07-29T09:36:00;33.50;67.70
31003;DHT22;23051;-6.372;106.786;2023-07-29T09:38:05;33.40;67.70
31003;DHT22;23051;-6.372;106.786;2023-07-29T09:40:06;33.40;67.80
31003;DHT22;23051;-6.372;106.786;2023-07-29T09:42:20;33.40;67.80
31003;DHT22;23051;-6.372;106.786;2023-07-29T09:44:21;33.30;67.80
31003;DHT22;23051;-6.372;106.786;2023-07-29T09:46:23;33.30;67.90
31003;DHT22;23051;-6.372;106.786;2023-07-29T09:48:24;33.30;67.90
31003;DHT22;23051;-6.372;106.786;2023-07-29T09:50:26;33.20;68.00
31003;DHT22;23051;-6.372;106.786;2023-07-29T09:52:29;33.10;68.30
31003;DHT22;23051;-6.372;106.786;2023-07-29T09:54:30;33.10;68.50
31003;DHT22;23051;-6.372;106.786;2023-07-29T09:56:31;33.00;68.60
31003;DHT22;23051;-6.372;106.786;2023-07-29T09:58:33;32.90;68.70
31003;DHT22;23051;-6.372;106.786;2023-07-29T10:00:35;32.90;68.80
31003;DHT22;23051;-6.372;106.786;2023-07-29T10:02:41;32.80;68.90
31003;DHT22;23051;-6.372;106.786;2023-07-29T10:04:45;32.80;69.00
31003;DHT22;23051;-6.372;106.786;2023-07-29T10:06:46;32.70;69.10
31003;DHT22;23051;-6.372;106.786;2023-07-29T10:08:48;32.70;69.30
31003;DHT22;23051;-6.372;106.786;2023-07-29T10:10:50;32.60;69.20
31003;DHT22;23051;-6.372;106.786;2023-07-29T10:12:54;32.60;69.20
31003;DHT22;23051;-6.372;106.786;2023-07-29T10:15:02;32.50;69.40
31003;DHT22;23051;-6.372;106.786;2023-07-29T10:17:06;32.50;69.40
31003;DHT22;23051;-6.372;106.786;2023-07-29T10:21:07;32.40;69.70
31003;DHT22;23051;-6.372;106.786;2023-07-29T10:23:09;32.30;69.80
31003;DHT22;23051;-6.372;106.786;2023-07-29T10:25:15;32.20;69.90
31003;DHT22;23051;-6.372;106.786;2023-07-29T10:27:17;32.10;70.00
31003;DHT22;23051;-6.372;106.786;2023-07-29T10:29:19;32.10;70.20
31003;DHT22;23051;-6.372;106.786;2023-07-29T10:31:22;32.00;70.40
31003;DHT22;23051;-6.372;106.786;2023-07-29T10:33:24;32.00;70.50
31003;DHT22;23051;-6.372;106.786;2023-07-29T10:35:25;31.90;70.60
31003;DHT22;23051;-6.372;106.786;2023-07-29T10:37:26;31.90;70.70
31003;DHT22;23051;-6.372;106.786;2023-07-29T10:43:37;31.70;70.80
31003;DHT22;23051;-6.372;106.786;2023-07-29T10:45:40;31.70;70.90
31003;DHT22;23051;-6.372;106.786;2023-07-29T10:47:43;31.70;70.90
31003;DHT22;23051;-6.372;106.786;2023-07-29T10:49:45;31.60;70.90
31003;DHT22;23051;-6.372;106.786;2023-07-29T10:51:49;31.60;71.00
31003;DHT22;23051;-6.372;106.786;2023-07-29T10:53:53;31.50;71.00
31003;DHT22;23051;-6.372;106.786;2023-07-29T10:55:55;31.50;71.10
31003;DHT22;23051;-6.372;106.786;2023-07-29T11:00:02;31.40;71.10
31003;DHT22;23051;-6.372;106.786;2023-07-29T11:02:11;31.40;71.10
31003;DHT22;23051;-6.372;106.786;2023-07-29T11:06:19;31.40;71.30
31003;DHT22;23051;-6.372;106.786;2023-07-29T11:10:21;31.30;71.40
31003;DHT22;23051;-6.372;106.786;2023-07-29T11:14:27;31.20;71.50
31003;DHT22;23051;-6.372;106.786;2023-07-29T11:16:27;31.20;71.60
31003;DHT22;23051;-6.372;106.786;2023-07-29T11:18:31;31.20;71.50
31003;DHT22;23051;-6.372;106.786;2023-07-29T11:20:37;31.20;71.60
31003;DHT22;23051;-6.372;106.786;2023-07-29T11:22:40;31.20;71.60
31003;DHT22;23051;-6.372;106.786;2023-07-29T11:24:41;31.10;71.50
31003;DHT22;23051;-6.372;106.786;2023-07-29T11:26:46;31.10;71.50
31003;DHT22;23051;-6.372;106.786;2023-07-29T11:28:49;31.10;71.50
31003;DHT22;23051;-6.372;106.786;2023-07-29T11:30:51;31.10;71.50
31003;DHT22;23051;-6.372;106.786;2023-07-29T11:32:53;31.00;71.50
31003;DHT22;23051;-6.372;106.786;2023-07-29T11:34:57;31.10;71.60
31003;DHT22;23051;-6.372;106.786;2023-07-29T11:37:00;31.00;71.60
31003;DHT22;23051;-6.372;106.786;2023-07-29T11:39:09;31.00;71.70
31003;DHT22;23051;-6.372;106.786;2023-07-29T11:41:12;30.90;71.70
31003;DHT22;23051;-6.372;106.786;2023-07-29T11:43:17;30.90;71.70
31003;DHT22;23051;-6.372;106.786;2023-07-29T11:45:20;30.90;71.80
31003;DHT22;23051;-6.372;106.786;2023-07-29T11:47:27;30.90;71.80
31003;DHT22;23051;-6.372;106.786;2023-07-29T11:49:31;30.90;71.70
31003;DHT22;23051;-6.372;106.786;2023-07-29T11:51:35;30.90;71.70
31003;DHT22;23051;-6.372;106.786;2023-07-29T11:53:39;30.90;71.70
31003;DHT22;23051;-6.372;106.786;2023-07-29T11:55:40;30.90;71.70
31003;DHT22;23051;-6.372;106.786;2023-07-29T11:57:43;30.80;71.60
31003;DHT22;23051;-6.372;106.786;2023-07-29T11:59:45;30.80;71.70
31003;DHT22;23051;-6.372;106.786;2023-07-29T12:01:51;30.80;71.80
31003;DHT22;23051;-6.372;106.786;2023-07-29T12:03:53;30.80;71.80
31003;DHT22;23051;-6.372;106.786;2023-07-29T12:05:56;30.80;71.80
31003;DHT22;23051;-6.372;106.786;2023-07-29T12:07:58;30.80;71.80
31003;DHT22;23051;-6.372;106.786;2023-07-29T12:10:02;30.70;71.70
31003;DHT22;23051;-6.372;106.786;2023-07-29T12:12:07;30.70;71.80
31003;DHT22;23051;-6.372;106.786;2023-07-29T12:14:08;30.70;71.80
31003;DHT22;23051;-6.372;106.786;2023-07-29T12:16:09;30.70;71.80
31003;DHT22;23051;-6.372;106.786;2023-07-29T12:18:12;30.70;71.70
31003;DHT22;23051;-6.372;106.786;2023-07-29T12:20:13;30.70;71.80
31003;DHT22;23051;-6.372;106.786;2023-07-29T12:22:17;30.60;71.70
31003;DHT22;23051;-6.372;106.786;2023-07-29T12:24:21;30.60;71.80
31003;DHT22;23051;-6.372;106.786;2023-07-29T12:26:26;30.60;71.90
31003;DHT22;23051;-6.372;106.786;2023-07-29T12:28:30;30.60;71.90
31003;DHT22;23051;-6.372;106.786;2023-07-29T12:30:31;30.50;71.80
31003;DHT22;23051;-6.372;106.786;2023-07-29T12:32:42;30.50;71.80
31003;DHT22;23051;-6.372;106.786;2023-07-29T12:34:43;30.50;71.90
31003;DHT22;23051;-6.372;106.786;2023-07-29T12:38:46;30.40;71.90
31003;DHT22;23051;-6.372;106.786;2023-07-29T12:40:48;30.40;72.00
31003;DHT22;23051;-6.372;106.786;2023-07-29T12:42:49;30.40;72.00
31003;DHT22;23051;-6.372;106.786;2023-07-29T12:44:51;30.30;72.00
31003;DHT22;23051;-6.372;106.786;2023-07-29T12:46:54;30.40;72.10
31003;DHT22;23051;-6.372;106.786;2023-07-29T12:48:56;30.30;72.00
31003;DHT22;23051;-6.372;106.786;2023-07-29T12:50:59;30.30;72.00
31003;DHT22;23051;-6.372;106.786;2023-07-29T12:53:03;30.30;72.00
31003;DHT22;23051;-6.372;106.786;2023-07-29T12:55:05;30.30;72.00
31003;DHT22;23051;-6.372;106.786;2023-07-29T12:57:09;30.30;72.10
31003;DHT22;23051;-6.372;106.786;2023-07-29T12:59:12;30.20;72.10